Time;durP1;ratioP1;P1;durP2;ratioP2;P2;SDS_P1;SDS_P2;PMS_P1;PMS_P2;Temp;Humidity;BMP_temperature;BMP_pressure;BME280_temperature;BME280_humidity;BME280_pressure;Samples;Min_cycle;Max_cycle;Signal;HPM_P1;HPM_P2
2023/09/10 00:01:06;;;;;;;;;;;;;;;19.89;100.00;96682.25;5104624;28;20180;-72
2023/09/10 00:03:32;;;;;;;;;;;;;;;19.85;100.00;96677.44;5104927;28;19958;-71
2023/09/10 00:06:01;;;;;;;;;;;;;;;19.83;100.00;96684.13;5104551;28;19999;-72
2023/09/10 00:08:27;;;;;;;;;;;;;;;19.79;100.00;96681.19;5104621;28;20016;-71
2023/09/10 00:10:54;;;;;;;;;;;;;;;19.76;100.00;96679.09;5086841;28;19962;-77
2023/09/10 00:13:20;;;;;;;;;;;;;;;19.73;100.00;96674.28;5104582;28;19970;-77
2023/09/10 00:15:46;;;;;;;;;;;;;;;19.71;100.00;96681.75;5104755;28;19951;-77
2023/09/10 00:18:12;;;;;;;;;;;;;;;19.68;100.00;96676.94;5104158;28;20186;-76
2023/09/10 00:20:38;;;;;;;;;;;;;;;19.66;100.00;96679.09;5104605;28;19962;-77
2023/09/10 00:23:04;;;;;;;;;;;;;;;19.64;100.00;96681.22;5104354;28;19956;-77
2023/09/10 00:25:30;;;;;;;;;;;;;;;19.60;100.00;96680.94;5104506;28;19956;-77
2023/09/10 00:27:57;;;;;;;;;;;;;;;19.59;100.00;96681.22;5103815;28;20011;-71
2023/09/10 00:30:23;;;;;;;;;;;;;;;19.56;100.00;96677.22;5105111;28;19948;-70
2023/09/10 00:32:48;;;;;;;;;;;;;;;19.53;100.00;96674.31;5108328;28;19980;-71
2023/09/10 00:35:14;;;;;;;;;;;;;;;19.48;100.00;96675.91;5089702;28;19970;-70
2023/09/10 00:37:40;;;;;;;;;;;;;;;19.47;100.00;96673.53;5108148;28;20047;-70
2023/09/10 00:40:07;;;;;;;;;;;;;;;19.45;100.00;96676.47;5108375;28;20271;-70
2023/09/10 00:42:33;;;;;;;;;;;;;;;19.43;100.00;96667.16;5107934;28;20233;-70
2023/09/10 00:44:59;;;;;;;;;;;;;;;19.42;100.00;96661.06;5108264;28;19980;-71
2023/09/10 00:47:25;;;;;;;;;;;;;;;19.39;100.00;96664.25;5107517;28;20192;-70
2023/09/10 00:49:52;;;;;;;;;;;;;;;19.39;100.00;96668.75;5107745;28;20256;-71
2023/09/10 00:52:17;;;;;;;;;;;;;;;19.37;100.00;96665.56;5107737;28;19960;-70
2023/09/10 00:54:44;;;;;;;;;;;;;;;19.34;100.00;96666.91;5107743;28;19986;-70
2023/09/10 00:57:11;;;;;;;;;;;;;;;19.31;100.00;96669.31;5089255;28;20264;-70
2023/09/10 00:59:37;;;;;;;;;;;;;;;19.27;100.00;96672.50;5107829;28;20143;-70
2023/09/10 01:02:03;;;;;;;;;;;;;;;19.26;100.00;96670.13;5107783;28;19968;-78
2023/09/10 01:04:28;;;;;;;;;;;;;;;19.23;100.00;96665.31;5107549;28;19957;-70
2023/09/10 01:06:54;;;;;;;;;;;;;;;19.21;100.00;96668.25;5072980;28;20009;-72
2023/09/10 01:09:20;;;;;;;;;;;;;;;19.17;100.00;96672.53;5073036;28;19963;-71
2023/09/10 01:11:53;;;;;;;;;;;;;;;19.15;100.00;96671.16;5107388;28;20138;-71
2023/09/10 01:14:26;;;;;;;;;;;;;;;19.12;100.00;96677.03;5107212;28;19952;-71
2023/09/10 01:17:13;;;;;;;;;;;;;;;19.10;100.00;96671.19;5107250;28;19962;-72
2023/09/10 01:19:39;;;;;;;;;;;;;;;19.06;100.00;96676.22;5107531;28;19953;-71
2023/09/10 01:22:09;;;;;;;;;;;;;;;19.01;100.00;96671.72;5107306;28;19959;-72
2023/09/10 01:24:49;;;;;;;;;;;;;;;18.98;100.00;96674.09;5072419;28;19958;-70
2023/09/10 01:27:15;;;;;;;;;;;;;;;18.93;100.00;96666.94;5107273;28;19957;-71
2023/09/10 01:29:42;;;;;;;;;;;;;;;18.92;100.00;96677.81;5107198;28;19952;-70
2023/09/10 01:32:10;;;;;;;;;;;;;;;18.88;100.00;96668.78;5106809;28;19961;-70
2023/09/10 01:34:43;;;;;;;;;;;;;;;18.86;100.00;96672.50;5106724;28;19964;-70
2023/09/10 01:37:25;;;;;;;;;;;;;;;18.83;100.00;96673.03;5106806;28;19955;-70
2023/09/10 01:39:51;;;;;;;;;;;;;;;18.79;100.00;96674.66;5072304;28;19957;-78
2023/09/10 01:42:18;;;;;;;;;;;;;;;18.78;100.00;96674.88;5105718;28;19964;-71
2023/09/10 01:44:45;;;;;;;;;;;;;;;18.76;100.00;96675.13;5088693;28;19953;-71
2023/09/10 01:47:11;;;;;;;;;;;;;;;18.74;100.00;96677.25;5106273;28;20137;-72
2023/09/10 01:49:37;;;;;;;;;;;;;;;18.72;100.00;96676.72;5089093;28;19985;-71
2023/09/10 01:52:03;;;;;;;;;;;;;;;18.70;100.00;96678.84;5107002;28;19952;-71
2023/09/10 01:54:29;;;;;;;;;;;;;;;18.66;100.00;96675.91;5106589;28;20126;-71
2023/09/10 01:56:55;;;;;;;;;;;;;;;18.65;100.00;96676.97;5106854;28;19960;-71
2023/09/10 01:59:20;;;;;;;;;;;;;;;18.64;100.00;96675.38;5106751;28;19997;-71
2023/09/10 02:01:46;;;;;;;;;;;;;;;18.63;100.00;96675.66;5106773;28;19965;-70
2023/09/10 02:04:12;;;;;;;;;;;;;;;18.62;100.00;96671.38;5088360;28;20070;-70
2023/09/10 02:06:38;;;;;;;;;;;;;;;18.61;100.00;96678.56;5105938;28;19955;-70
2023/09/10 02:09:04;;;;;;;;;;;;;;;18.59;100.00;96680.69;5088104;28;19950;-70
2023/09/10 02:11:30;;;;;;;;;;;;;;;18.58;100.00;96675.63;5106362;28;19955;-70
2023/09/10 02:13:55;;;;;;;;;;;;;;;18.56;100.00;96675.91;5106396;28;19955;-70
2023/09/10 02:16:21;;;;;;;;;;;;;;;18.54;100.00;96672.72;5106289;28;19971;-76
2023/09/10 02:18:47;;;;;;;;;;;;;;;18.53;100.00;96668.47;5087914;28;19967;-70
2023/09/10 02:21:13;;;;;;;;;;;;;;;18.51;100.00;96669.78;5088306;28;19998;-78
2023/09/10 02:23:43;;;;;;;;;;;;;;;18.50;100.00;96665.53;5106423;28;19959;-78
2023/09/10 02:26:09;;;;;;;;;;;;;;;18.45;100.00;96669.75;5106131;28;19967;-78
2023/09/10 02:28:35;;;;;;;;;;;;;;;18.42;100.00;96670.31;5106252;28;20133;-78
2023/09/10 02:31:08;;;;;;;;;;;;;;;18.41;100.00;96670.56;5105866;28;19998;-78
2023/09/10 02:33:34;;;;;;;;;;;;;;;18.39;100.00;96667.38;5105977;28;19958;-78
2023/09/10 02:36:01;;;;;;;;;;;;;;;18.37;100.00;96662.34;5105945;28;19972;-78
2023/09/10 02:38:27;;;;;;;;;;;;;;;18.37;100.00;96657.03;5105721;28;20143;-78
2023/09/10 02:40:56;;;;;;;;;;;;;;;18.37;100.00;96662.34;5105840;28;19965;-78
2023/09/10 02:43:22;;;;;;;;;;;;;;;18.35;100.00;96660.97;5105269;28;19945;-78
2023/09/10 02:45:48;;;;;;;;;;;;;;;18.33;100.00;96655.13;5105733;28;19953;-77
2023/09/10 02:48:13;;;;;;;;;;;;;;;18.32;100.00;96653.56;5105678;28;19974;-78
2023/09/10 02:50:39;;;;;;;;;;;;;;;18.31;100.00;96665.22;5087227;28;19969;-78
2023/09/10 02:53:05;;;;;;;;;;;;;;;18.30;100.00;96666.28;5086842;28;20148;-76
2023/09/10 02:55:31;;;;;;;;;;;;;;;18.28;100.00;96660.44;5105684;28;19954;-78
2023/09/10 02:57:57;;;;;;;;;;;;;;;18.24;100.00;96662.81;5105005;28;20131;-70
2023/09/10 03:00:25;;;;;;;;;;;;;;;18.22;100.00;96664.94;5105213;28;20268;-70
2023/09/10 03:02:53;;;;;;;;;;;;;;;18.19;100.00;96668.13;5105016;28;19959;-71
2023/09/10 03:05:19;;;;;;;;;;;;;;;18.17;100.00;96672.91;5105422;28;20112;-70
2023/09/10 03:07:45;;;;;;;;;;;;;;;18.14;100.00;96666.25;5087071;28;19997;-70
2023/09/10 03:10:11;;;;;;;;;;;;;;;18.13;100.00;96663.84;5105226;28;20169;-70
2023/09/10 03:12:36;;;;;;;;;;;;;;;18.09;100.00;96666.22;5087074;28;19965;-77
2023/09/10 03:15:02;;;;;;;;;;;;;;;18.07;100.00;96671.00;5105152;28;19954;-71
2023/09/10 03:17:29;;;;;;;;;;;;;;;18.04;100.00;96672.31;5105029;28;19979;-71
2023/09/10 03:19:55;;;;;;;;;;;;;;;18.02;100.00;96665.69;5087125;28;19969;-71
2023/09/10 03:22:20;;;;;;;;;;;;;;;17.99;100.00;96668.84;5105277;28;19962;-71
2023/09/10 03:24:46;;;;;;;;;;;;;;;17.96;100.00;96672.03;5105095;28;20140;-70
2023/09/10 03:27:12;;;;;;;;;;;;;;;17.94;100.00;96672.28;5105006;28;20023;-71
2023/09/10 03:29:38;;;;;;;;;;;;;;;17.92;100.00;96677.03;5105100;28;20027;-77
2023/09/10 03:32:06;;;;;;;;;;;;;;;17.92;100.00;96681.56;5086419;28;19973;-77
2023/09/10 03:34:32;;;;;;;;;;;;;;;17.89;100.00;96672.25;5104688;28;19964;-71
2023/09/10 03:36:58;;;;;;;;;;;;;;;17.86;100.00;96670.13;5104809;28;19958;-71
2023/09/10 03:39:24;;;;;;;;;;;;;;;17.83;100.00;96674.09;5069744;28;19971;-71
2023/09/10 03:41:52;;;;;;;;;;;;;;;17.82;100.00;96683.09;5104888;28;20031;-71
2023/09/10 03:44:18;;;;;;;;;;;;;;;17.80;100.00;96681.72;5104810;28;19983;-71
2023/09/10 03:46:44;;;;;;;;;;;;;;;17.79;100.00;96682.78;5104792;28;19968;-71
2023/09/10 03:49:10;;;;;;;;;;;;;;;17.78;100.00;96681.19;5104968;28;19954;-78
2023/09/10 03:51:36;;;;;;;;;;;;;;;17.79;100.00;96683.59;5104385;28;19960;-78
2023/09/10 03:54:02;;;;;;;;;;;;;;;17.79;100.00;96685.44;5104651;28;19982;-78
2023/09/10 03:56:27;;;;;;;;;;;;;;;17.78;100.00;96687.28;5086414;28;19988;-79
2023/09/10 03:58:53;;;;;;;;;;;;;;;17.76;100.00;96684.09;5104746;28;20130;-79
2023/09/10 04:01:19;;;;;;;;;;;;;;;17.76;100.00;96681.44;5086453;28;20001;-78
2023/09/10 04:03:45;;;;;;;;;;;;;;;17.75;100.00;96684.38;5104485;28;19997;-79
2023/09/10 04:06:11;;;;;;;;;;;;;;;17.74;100.00;96683.53;5106646;28;20123;-78
2023/09/10 04:08:36;;;;;;;;;;;;;;;17.75;100.00;96684.38;5108862;28;20146;-78
2023/09/10 04:11:02;;;;;;;;;;;;;;;17.74;100.00;96680.88;5108683;28;19958;-77
2023/09/10 04:13:28;;;;;;;;;;;;;;;17.73;100.00;96681.97;5090161;28;19958;-77
2023/09/10 04:15:54;;;;;;;;;;;;;;;17.72;100.00;96679.56;5074058;28;19948;-78
2023/09/10 04:18:20;;;;;;;;;;;;;;;17.73;100.00;96686.47;5108285;28;20011;-78
2023/09/10 04:20:46;;;;;;;;;;;;;;;17.72;100.00;96687.50;5108589;28;19962;-78
2023/09/10 04:23:12;;;;;;;;;;;;;;;17.72;100.00;96690.16;5090461;28;19957;-78
2023/09/10 04:25:38;;;;;;;;;;;;;;;17.72;100.00;96690.16;5090475;28;19962;-70
2023/09/10 04:28:04;;;;;;;;;;;;;;;17.71;100.00;96688.59;5090106;28;19972;-78
2023/09/10 04:30:30;;;;;;;;;;;;;;;17.70;100.00;96682.50;5108377;28;19953;-79
2023/09/10 04:32:56;;;;;;;;;;;;;;;17.70;100.00;96679.03;5089972;28;19965;-79
2023/09/10 04:35:22;;;;;;;;;;;;;;;17.69;100.00;96696.78;5108275;28;19961;-79
2023/09/10 04:37:48;;;;;;;;;;;;;;;17.68;100.00;96692.56;5108042;28;19960;-79
2023/09/10 04:40:14;;;;;;;;;;;;;;;17.64;100.00;96697.56;5108220;28;20121;-79
2023/09/10 04:42:40;;;;;;;;;;;;;;;17.63;100.00;96692.50;5108176;28;20243;-79
2023/09/10 04:45:06;;;;;;;;;;;;;;;17.60;100.00;96688.53;5108038;28;19962;-70
2023/09/10 04:47:32;;;;;;;;;;;;;;;17.59;100.00;96688.78;5090107;28;20139;-78
2023/09/10 04:49:58;;;;;;;;;;;;;;;17.56;100.00;96695.41;5108243;28;19953;-78
2023/09/10 04:52:24;;;;;;;;;;;;;;;17.53;100.00;96701.19;5107926;28;20138;-78
2023/09/10 04:54:50;;;;;;;;;;;;;;;17.50;100.00;96687.66;5090005;28;19962;-78
2023/09/10 04:57:16;;;;;;;;;;;;;;;17.47;100.00;96696.13;5107533;28;19953;-78
2023/09/10 04:59:42;;;;;;;;;;;;;;;17.45;100.00;96702.50;5107390;28;19965;-78
2023/09/10 05:02:08;;;;;;;;;;;;;;;17.44;100.00;96702.75;5107573;28;19968;-71
2023/09/10 05:04:34;;;;;;;;;;;;;;;17.41;100.00;96701.41;5107554;28;19955;-71
2023/09/10 05:07:00;;;;;;;;;;;;;;;17.39;100.00;96708.03;5107545;28;19956;-70
2023/09/10 05:09:26;;;;;;;;;;;;;;;17.36;100.00;96704.00;5072671;28;20167;-70
2023/09/10 05:11:56;;;;;;;;;;;;;;;17.35;100.00;96702.41;5107573;28;19963;-70
2023/09/10 05:14:22;;;;;;;;;;;;;;;17.36;100.00;96709.31;5107512;28;19945;-70
2023/09/10 05:16:48;;;;;;;;;;;;;;;17.34;100.00;96703.47;5089423;28;19972;-70
2023/09/10 05:19:14;;;;;;;;;;;;;;;17.35;100.00;96712.22;5107311;28;19958;-70
2023/09/10 05:21:39;;;;;;;;;;;;;;;17.32;100.00;96707.44;5107385;28;19960;-76
2023/09/10 05:24:06;;;;;;;;;;;;;;;17.32;100.00;96708.22;5107059;28;19956;-77
2023/09/10 05:26:32;;;;;;;;;;;;;;;17.31;100.00;96711.94;5106962;28;19965;-77
2023/09/10 05:28:58;;;;;;;;;;;;;;;17.32;100.00;96710.88;5106683;28;20005;-77
2023/09/10 05:31:24;;;;;;;;;;;;;;;17.39;100.00;96708.03;5106974;28;19962;-77
2023/09/10 05:33:50;;;;;;;;;;;;;;;17.57;100.00;96715.53;5107086;28;19961;-78
2023/09/10 05:36:16;;;;;;;;;;;;;;;17.69;100.00;96711.91;5107077;28;19964;-77
2023/09/10 05:38:42;;;;;;;;;;;;;;;17.77;100.00;96708.78;5088727;28;19973;-78
2023/09/10 05:41:08;;;;;;;;;;;;;;;18.00;100.00;96699.63;5107033;28;19957;-78
2023/09/10 05:43:33;;;;;;;;;;;;;;;18.31;100.00;96702.38;5106989;28;19983;-78
2023/09/10 05:45:59;;;;;;;;;;;;;;;18.60;100.00;96692.09;5106906;28;19948;-79
2023/09/10 05:48:25;;;;;;;;;;;;;;;18.86;100.00;96691.13;5107090;28;19958;-79
2023/09/10 05:50:57;;;;;;;;;;;;;;;19.12;100.00;96682.34;5088292;28;19960;-79
2023/09/10 05:53:23;;;;;;;;;;;;;;;19.41;100.00;96688.69;5106751;28;20241;-79
2023/09/10 05:55:49;;;;;;;;;;;;;;;19.69;100.00;96689.16;5106451;28;19961;-80
2023/09/10 05:58:16;;;;;;;;;;;;;;;19.98;100.00;96675.28;5105996;28;20007;-70
2023/09/10 06:00:42;;;;;;;;;;;;;;;20.24;100.00;96687.41;5088308;28;19957;-77
2023/09/10 06:03:09;;;;;;;;;;;;;;;20.48;100.00;96681.44;5106246;28;19957;-76
2023/09/10 06:05:35;;;;;;;;;;;;;;;20.70;100.00;96675.72;5106561;28;19978;-77
2023/09/10 06:08:01;;;;;;;;;;;;;;;20.90;100.00;96676.66;5106445;28;20227;-77
2023/09/10 06:10:27;;;;;;;;;;;;;;;21.04;100.00;96675.75;5106470;28;19953;-77
2023/09/10 06:12:53;;;;;;;;;;;;;;;21.13;100.00;96678.59;5106384;28;19999;-77
2023/09/10 06:15:18;;;;;;;;;;;;;;;21.21;100.00;96671.88;5088321;28;19971;-71
2023/09/10 06:17:44;;;;;;;;;;;;;;;21.25;100.00;96673.69;5088548;28;20003;-76
2023/09/10 06:20:11;;;;;;;;;;;;;;;21.24;100.00;96680.09;5106176;28;20002;-71
2023/09/10 06:22:37;;;;;;;;;;;;;;;21.32;100.00;96675.25;5106146;28;19953;-70
2023/09/10 06:25:03;;;;;;;;;;;;;;;21.38;100.00;96674.13;5070994;28;19972;-70
2023/09/10 06:27:29;;;;;;;;;;;;;;;21.47;100.00;96680.47;5105887;28;19954;-70
2023/09/10 06:29:54;;;;;;;;;;;;;;;21.53;100.00;96676.66;5104955;28;20000;-70
2023/09/10 06:32:20;;;;;;;;;;;;;;;21.60;100.00;96681.66;5106035;28;19999;-70
2023/09/10 06:34:46;;;;;;;;;;;;;;;21.61;100.00;96675.25;5087602;28;20182;-71
2023/09/10 06:37:12;;;;;;;;;;;;;;;21.62;100.00;96684.84;5105869;28;20257;-78
2023/09/10 06:39:38;;;;;;;;;;;;;;;21.66;100.00;96691.22;5105878;28;19968;-77
2023/09/10 06:42:10;;;;;;;;;;;;;;;21.72;100.00;96681.28;5105701;28;20135;-77
2023/09/10 06:44:38;;;;;;;;;;;;;;;21.78;100.00;96688.16;5087119;28;19964;-78
2023/09/10 06:47:04;;;;;;;;;;;;;;;21.80;100.00;96684.13;5105540;28;20229;-78
2023/09/10 06:49:30;;;;;;;;;;;;;;;21.80;100.00;96692.13;5105315;28;19960;-78
2023/09/10 06:51:56;;;;;;;;;;;;;;;21.85;100.00;96689.38;5105714;28;19994;-71
2023/09/10 06:54:23;;;;;;;;;;;;;;;21.87;100.00;96695.25;5105759;28;19960;-71
2023/09/10 06:56:48;;;;;;;;;;;;;;;21.94;100.00;96694.09;5105303;28;19954;-79
2023/09/10 06:59:14;;;;;;;;;;;;;;;22.04;100.00;96699.31;5105412;28;20041;-79
2023/09/10 07:01:40;;;;;;;;;;;;;;;22.10;100.00;96695.53;5105294;28;20205;-79
2023/09/10 07:04:19;;;;;;;;;;;;;;;22.12;100.00;96704.03;5105359;28;19970;-79
2023/09/10 07:06:46;;;;;;;;;;;;;;;22.22;100.00;96693.22;5105359;28;19954;-78
2023/09/10 07:09:13;;;;;;;;;;;;;;;22.24;100.00;96701.78;5086739;28;20113;-79
2023/09/10 07:11:39;;;;;;;;;;;;;;;22.27;100.00;96695.84;5105548;28;19969;-78
2023/09/10 07:14:05;;;;;;;;;;;;;;;22.25;100.00;96687.34;5105503;28;20167;-78
2023/09/10 07:16:33;;;;;;;;;;;;;;;22.28;100.00;96702.03;5105033;28;20228;-79
2023/09/10 07:18:58;;;;;;;;;;;;;;;22.24;100.00;96696.44;5105036;28;19964;-78
2023/09/10 07:21:24;;;;;;;;;;;;;;;22.24;100.00;96696.44;5105142;28;19969;-78
2023/09/10 07:23:50;;;;;;;;;;;;;;;22.32;100.00;96700.34;5104904;28;19952;-78
2023/09/10 07:26:16;;;;;;;;;;;;;;;22.45;99.96;96685.50;5105058;28;20179;-78
2023/09/10 07:28:42;;;;;;;;;;;;;;;22.57;99.63;96693.84;5104923;28;19961;-71
2023/09/10 07:31:08;;;;;;;;;;;;;;;22.62;99.93;96693.78;5070157;28;19967;-78
2023/09/10 07:33:33;;;;;;;;;;;;;;;22.73;100.00;96693.66;5086648;28;19961;-71
2023/09/10 07:35:59;;;;;;;;;;;;;;;22.77;100.00;96692.00;5104829;28;19967;-71
2023/09/10 07:38:25;;;;;;;;;;;;;;;22.84;100.00;96701.22;5086309;28;20018;-71
2023/09/10 07:40:51;;;;;;;;;;;;;;;22.93;100.00;96693.34;5105145;28;19956;-71
2023/09/10 07:43:17;;;;;;;;;;;;;;;23.05;99.98;96684.88;5086942;28;20006;-71
2023/09/10 07:45:44;;;;;;;;;;;;;;;23.11;99.04;96689.06;5104880;28;19961;-71
2023/09/10 07:48:11;;;;;;;;;;;;;;;23.17;99.23;96695.94;5086640;28;19961;-78
2023/09/10 07:50:37;;;;;;;;;;;;;;;23.27;99.12;96697.66;5104464;28;19960;-77
2023/09/10 07:53:03;;;;;;;;;;;;;;;23.39;99.49;96694.50;5104511;28;20029;-77
2023/09/10 07:55:33;;;;;;;;;;;;;;;23.44;98.95;96692.53;5103908;28;21170;-76
2023/09/10 07:57:59;;;;;;;;;;;;;;;23.50;95.63;96679.84;5104625;28;19955;-78
2023/09/10 08:00:25;;;;;;;;;;;;;;;23.57;96.86;96685.59;5104105;28;19968;-77
2023/09/10 08:02:51;;;;;;;;;;;;;;;23.62;95.78;96680.19;5104772;28;19951;-78
2023/09/10 08:05:17;;;;;;;;;;;;;;;23.66;98.29;96699.09;5104559;28;19957;-72
2023/09/10 08:07:43;;;;;;;;;;;;;;;23.69;96.13;96688.59;5069451;28;19949;-76
2023/09/10 08:10:09;;;;;;;;;;;;;;;23.63;95.75;96684.44;5104780;28;20242;-71
2023/09/10 08:12:35;;;;;;;;;;;;;;;23.69;96.50;96690.50;5086799;28;20026;-72
2023/09/10 08:15:01;;;;;;;;;;;;;;;23.75;96.30;96683.13;5104524;28;19964;-72
2023/09/10 08:17:26;;;;;;;;;;;;;;;23.82;96.23;96684.38;5104592;28;19963;-71
2023/09/10 08:19:52;;;;;;;;;;;;;;;23.87;95.41;96683.47;5086446;28;20013;-71
2023/09/10 08:22:18;;;;;;;;;;;;;;;23.91;95.81;96684.47;5086145;28;19956;-72
2023/09/10 08:24:46;;;;;;;;;;;;;;;23.96;96.59;96691.59;5104304;28;19965;-77
2023/09/10 08:27:15;;;;;;;;;;;;;;;24.03;96.33;96694.69;5104445;28;20149;-71
2023/09/10 08:29:40;;;;;;;;;;;;;;;24.12;96.92;96692.88;5104895;28;19962;-71
2023/09/10 08:32:06;;;;;;;;;;;;;;;24.22;96.34;96695.38;5086200;28;19991;-71
2023/09/10 08:34:32;;;;;;;;;;;;;;;24.28;96.90;96691.50;5086099;28;20000;-71
2023/09/10 08:36:58;;;;;;;;;;;;;;;24.40;96.04;96682.13;5085890;28;19942;-71
2023/09/10 08:39:24;;;;;;;;;;;;;;;24.57;96.18;96681.50;5086324;28;19978;-71
2023/09/10 08:41:56;;;;;;;;;;;;;;;24.70;94.69;96678.81;5085927;28;19951;-71
2023/09/10 08:44:22;;;;;;;;;;;;;;;24.84;94.15;96678.78;5086417;28;19958;-77
2023/09/10 08:46:49;;;;;;;;;;;;;;;24.93;93.01;96676.16;5104352;28;19978;-72
2023/09/10 08:49:15;;;;;;;;;;;;;;;25.02;91.45;96665.47;5085876;28;19964;-72
2023/09/10 08:51:41;;;;;;;;;;;;;;;25.09;91.68;96666.63;5087236;28;19957;-72
2023/09/10 08:54:07;;;;;;;;;;;;;;;25.17;90.66;96673.13;5072866;28;20036;-72
2023/09/10 08:56:33;;;;;;;;;;;;;;;25.20;90.85;96664.50;5089646;28;19964;-73
2023/09/10 08:59:00;;;;;;;;;;;;;;;25.23;87.37;96639.72;5123348;28;19966;-72
2023/09/10 09:01:26;;;;;;;;;;;;;;;25.29;90.99;96662.66;5089537;28;20142;-77
2023/09/10 09:03:52;;;;;;;;;;;;;;;25.38;86.15;96635.06;5107610;28;20006;-77
2023/09/10 09:06:18;;;;;;;;;;;;;;;25.47;88.06;96647.44;5107245;28;19949;-77
2023/09/10 09:08:49;;;;;;;;;;;;;;;25.58;89.13;96656.00;5107780;28;19953;-78
2023/09/10 09:11:16;;;;;;;;;;;;;;;25.66;86.16;96632.97;5107407;28;19956;-77
2023/09/10 09:13:44;;;;;;;;;;;;;;;25.71;85.65;96630.16;5107239;28;19960;-77
2023/09/10 09:16:10;;;;;;;;;;;;;;;25.76;85.13;96626.53;5107254;28;20256;-77
2023/09/10 09:18:36;;;;;;;;;;;;;;;25.78;83.06;96616.25;5107506;28;19953;-78
2023/09/10 09:21:11;;;;;;;;;;;;;;;25.78;83.64;96629.69;5107220;28;19963;-71
2023/09/10 09:23:44;;;;;;;;;;;;;;;25.77;81.76;96614.69;5107431;28;20249;-71
2023/09/10 09:26:12;;;;;;;;;;;;;;;25.76;83.59;96621.16;5107515;28;19975;-71
2023/09/10 09:28:38;;;;;;;;;;;;;;;25.78;83.41;96625.09;5088975;28;20161;-72
2023/09/10 09:31:09;;;;;;;;;;;;;;;25.82;82.26;96614.53;5089487;28;19958;-71
2023/09/10 09:33:38;;;;;;;;;;;;;;;25.88;84.90;96632.88;5107348;28;19962;-71
2023/09/10 09:36:08;;;;;;;;;;;;;;;25.96;83.75;96620.59;5088642;28;19968;-71
2023/09/10 09:38:33;;;;;;;;;;;;;;;25.99;82.97;96611.91;5106773;28;19954;-73
2023/09/10 09:41:04;;;;;;;;;;;;;;;26.02;83.22;96618.56;5088411;28;20045;-71
2023/09/10 09:43:34;;;;;;;;;;;;;;;26.06;81.70;96608.75;5106795;28;19961;-71
2023/09/10 09:46:03;;;;;;;;;;;;;;;26.09;82.59;96614.28;5071755;28;19963;-72
2023/09/10 09:48:29;;;;;;;;;;;;;;;26.15;77.19;96592.66;5071810;28;20122;-71
2023/09/10 09:50:56;;;;;;;;;;;;;;;26.18;80.27;96613.53;5071550;28;19958;-71
2023/09/10 09:53:26;;;;;;;;;;;;;;;26.20;80.72;96619.38;5106783;28;20011;-71
2023/09/10 09:55:55;;;;;;;;;;;;;;;26.23;81.24;96622.22;5072295;28;20107;-76
2023/09/10 09:58:21;;;;;;;;;;;;;;;26.28;82.64;96627.44;5107116;28;19962;-78
2023/09/10 10:00:47;;;;;;;;;;;;;;;26.35;81.27;96626.19;5106232;28;19995;-72
2023/09/10 10:03:13;;;;;;;;;;;;;;;26.39;79.50;96622.53;5087690;28;20242;-73
2023/09/10 10:05:39;;;;;;;;;;;;;;;26.45;79.28;96626.66;5106689;28;20223;-72
2023/09/10 10:08:05;;;;;;;;;;;;;;;26.48;77.46;96620.66;5106466;28;20209;-72
2023/09/10 10:10:33;;;;;;;;;;;;;;;26.49;78.84;96626.81;5106479;28;19953;-72
2023/09/10 10:13:00;;;;;;;;;;;;;;;26.52;79.11;96627.00;5106397;28;19965;-73
2023/09/10 10:15:27;;;;;;;;;;;;;;;26.57;78.97;96627.97;5106259;28;19959;-71
2023/09/10 10:17:53;;;;;;;;;;;;;;;26.62;80.21;96631.28;5088116;28;19964;-72
2023/09/10 10:20:19;;;;;;;;;;;;;;;26.66;78.41;96631.44;5087651;28;19977;-72
2023/09/10 10:22:46;;;;;;;;;;;;;;;26.73;77.46;96616.41;5106206;28;19952;-72
2023/09/10 10:25:12;;;;;;;;;;;;;;;26.82;74.89;96596.78;5106151;28;19962;-72
2023/09/10 10:27:41;;;;;;;;;;;;;;;26.93;75.71;96600.69;5088095;28;19958;-72
2023/09/10 10:30:08;;;;;;;;;;;;;;;26.99;75.39;96612.88;5106234;28;19960;-72
2023/09/10 10:32:38;;;;;;;;;;;;;;;27.12;75.97;96613.81;5105918;28;19950;-74
2023/09/10 10:35:05;;;;;;;;;;;;;;;27.22;75.45;96618.88;5087871;28;19970;-78
2023/09/10 10:37:44;;;;;;;;;;;;;;;27.34;73.07;96615.53;5105777;28;19960;-72
2023/09/10 10:40:09;;;;;;;;;;;;;;;27.42;70.91;96598.50;5105243;28;20141;-72
2023/09/10 10:42:40;;;;;;;;;;;;;;;27.48;73.48;96615.28;5105824;28;19960;-73
2023/09/10 10:45:07;;;;;;;;;;;;;;;27.57;70.64;96609.84;5088129;28;19965;-72
2023/09/10 10:47:41;;;;;;;;;;;;;;;27.70;73.23;96606.16;5105252;28;19964;-72
2023/09/10 10:50:09;;;;;;;;;;;;;;;27.89;75.33;96606.56;5105878;28;19952;-73
2023/09/10 10:52:38;;;;;;;;;;;;;;;28.02;70.88;96603.94;5087141;28;20043;-78
2023/09/10 10:55:05;;;;;;;;;;;;;;;28.20;72.93;96610.00;5106124;28;19958;-72
2023/09/10 10:57:31;;;;;;;;;;;;;;;28.37;69.80;96593.72;5105567;28;19963;-71
2023/09/10 10:59:57;;;;;;;;;;;;;;;28.51;68.91;96596.16;5105141;28;19963;-72
2023/09/10 11:02:23;;;;;;;;;;;;;;;28.62;69.15;96588.44;5121172;28;19969;-72
2023/09/10 11:04:59;;;;;;;;;;;;;;;28.74;63.65;96588.47;5105306;28;19962;-72
2023/09/10 11:07:29;;;;;;;;;;;;;;;28.85;69.47;96603.16;5087645;28;19965;-71
2023/09/10 11:09:57;;;;;;;;;;;;;;;29.00;68.47;96587.44;5105296;28;19956;-77
2023/09/10 11:12:23;;;;;;;;;;;;;;;29.09;67.07;96601.63;5070440;28;19946;-72
2023/09/10 11:15:01;;;;;;;;;;;;;;;29.02;67.37;96602.19;5105213;28;19962;-72
2023/09/10 11:17:32;;;;;;;;;;;;;;;29.01;70.99;96597.91;5069930;28;19964;-72
2023/09/10 11:19:58;;;;;;;;;;;;;;;29.10;67.36;96592.44;5069928;28;20157;-72
2023/09/10 11:22:24;;;;;;;;;;;;;;;29.01;66.90;96589.00;5086659;28;19960;-72
2023/09/10 11:25:00;;;;;;;;;;;;;;;28.97;66.21;96594.28;5105229;28;20137;-72
2023/09/10 11:27:30;;;;;;;;;;;;;;;28.80;66.98;96594.47;5086860;28;20145;-72
2023/09/10 11:30:03;;;;;;;;;;;;;;;28.69;65.79;96591.41;5086779;28;19972;-72
2023/09/10 11:32:29;;;;;;;;;;;;;;;28.57;67.54;96584.03;5104974;28;19961;-76
2023/09/10 11:35:13;;;;;;;;;;;;;;;28.50;66.06;96581.88;5105166;28;20247;-77
2023/09/10 11:37:41;;;;;;;;;;;;;;;28.74;67.06;96588.47;5104724;28;19961;-76
2023/09/10 11:40:08;;;;;;;;;;;;;;;29.03;68.44;96581.38;5086578;28;19976;-77
2023/09/10 11:42:35;;;;;;;;;;;;;;;29.26;62.91;96577.16;5104332;28;19954;-76
2023/09/10 11:45:01;;;;;;;;;;;;;;;29.42;67.36;96582.69;5104659;28;19959;-77
2023/09/10 11:47:27;;;;;;;;;;;;;;;29.59;63.41;96578.97;5104683;28;20022;-77
2023/09/10 11:49:59;;;;;;;;;;;;;;;29.63;62.72;96573.66;5086549;28;19969;-78
2023/09/10 11:52:25;;;;;;;;;;;;;;;29.46;61.14;96580.09;5104849;28;19955;-78
2023/09/10 11:54:53;;;;;;;;;;;;;;;29.26;64.44;96585.25;5104796;28;20243;-77
2023/09/10 11:57:20;;;;;;;;;;;;;;;29.09;65.65;96593.53;5087005;28;19942;-78
2023/09/10 11:59:50;;;;;;;;;;;;;;;28.93;66.56;96591.47;5104993;28;19964;-77
2023/09/10 12:02:16;;;;;;;;;;;;;;;28.99;68.17;96597.44;5104543;28;20120;-78
2023/09/10 12:04:42;;;;;;;;;;;;;;;29.19;59.07;96576.13;5104301;28;20245;-72
2023/09/10 12:07:08;;;;;;;;;;;;;;;29.43;64.19;96580.78;5069498;28;19999;-72
2023/09/10 12:09:34;;;;;;;;;;;;;;;29.67;60.08;96572.69;5086253;28;20007;-72
2023/09/10 12:12:21;;;;;;;;;;;;;;;29.87;60.37;96578.31;5104479;28;19954;-73
2023/09/10 12:14:47;;;;;;;;;;;;;;;29.99;57.49;96570.19;5104565;28;19959;-72
2023/09/10 12:17:13;;;;;;;;;;;;;;;30.07;60.63;96571.97;5086255;28;20023;-72
2023/09/10 12:19:40;;;;;;;;;;;;;;;30.14;60.10;96577.56;5069525;28;19961;-72
2023/09/10 12:22:09;;;;;;;;;;;;;;;30.26;59.88;96570.53;5086352;28;19941;-72
2023/09/10 12:24:35;;;;;;;;;;;;;;;30.30;61.15;96574.19;5104510;28;19965;-72
2023/09/10 12:27:02;;;;;;;;;;;;;;;30.43;58.04;96564.91;5088173;28;20142;-77
2023/09/10 12:29:28;;;;;;;;;;;;;;;30.54;59.38;96571.38;5108393;28;20134;-76
2023/09/10 12:31:56;;;;;;;;;;;;;;;30.70;57.68;96560.63;5108129;28;20148;-76
2023/09/10 12:34:23;;;;;;;;;;;;;;;30.90;52.61;96552.63;5108018;28;19969;-77
2023/09/10 12:36:50;;;;;;;;;;;;;;;31.02;55.83;96559.91;5108134;28;20141;-77
2023/09/10 12:39:17;;;;;;;;;;;;;;;31.11;53.71;96546.97;5108114;28;19972;-77